Alameda, OR

9:46 PM PDT on September 23, 2014 (GMT -0700)
Portland-Troutdale | Change Station
CLOSE
Current Station
Airport
Location: Portland Troutdale,
Elevation: 36 ft
Nearby Weather Stations
Active Advisory: Special Statement

Elev 36 ft 45.55 °N, 122.41 °W | Updated 53 minutes ago

Rain
Rain
65 °F
Feels Like 65 °F
N
13
Wind Variable Wind from East

Today
High -- | Low -- °F
--% Chance of Precip.
Yesterday
High -- | Low -- °F
Precip. -- in
6:58 AM 7:05 PM
Waning Crescent, 0% visible
Pressure 29.72 in
Visibility 10.0 miles
Clouds Overcast 10000 ft
Dew Point 58 °F
Humidity 78%
Rainfall 0.03 in
Snow Depth 0 in , 0 in , 0 in
UV 0 out of 12
Pollen .40 out of 12
Ozone Good
PM2.5 Good
Flu Activity Not available.
METAR KTTD 240353Z 09011KT 10SM OVC100 18/14 A2972 RMK AO2 RAE31 SLP062 P0000 T01830144

More Conditions Fewer Conditions

Pressure 29.72 in
Visibility 10.0 miles
Clouds Overcast 10000 ft
Dew Point 58 °F
Humidity 78%
Rainfall 0.03 in
Snow Depth 0 in , 0 in , 0 in
UV 0 out of 12
Pollen .40 out of 12
Ozone Good
PM2.5 Good
Flu Activity Not available.
METAR KTTD 240353Z 09011KT 10SM OVC100 18/14 A2972 RMK AO2 RAE31 SLP062 P0000 T01830144

More Conditions Fewer Conditions

10-Day Weather Forecast

Almanac

Astronomy

Sep. 23, 2014 Rise Set
Actual Time 6:58 AM PDT 7:05 PM PDT
Civil Twilight 6:29 AM PDT 7:35 PM PDT
Nautical Twilight 5:54 AM PDT 8:10 PM PDT
Astronomical Twilight 5:18 AM PDT 8:45 PM PDT
Moon 6:28 AM PDT (9/23) 6:46 PM PDT (9/23)
Length of Visible Light 13h 06m
Length of Day
12h 07m
Tomorrow will be 3m 10s shorter.
Waning Crescent, 0% of the Moon is Illuminated
Sep 24
Waning Crescent
Sep 24
New
Oct 1
First Quarter
Oct 8
Full
Oct 15
Last Quarter

Yesterday's Extremes

State Highs State Lows

Community

WunderPhotos

Upload Photos

1,755,891 photos uploaded!

WunderBlogs® & News

Nearby

Air Quality

  Air Quality AQ Index Pollutant
Yesterday Good
OZONE
Yesterday Good
PM2.5
Current Good
PM2.5
Current Good
OZONE
Tuesday Good
PM2.5
Wednesday Good
PM2.5

Snow Depth

Station Depth Elevation
Roaring River 0 in 4900 ft
New Crescent Lake 0 in 4800 ft
Schneider Meadows 0 in 5400 ft
Hogg Pass 0 in 4760 ft
Santiam Junction 0 in 3750 ft

Earthquake Activity

City Distance Mag. Time & Date
No recent earthquake activity has been reported nearby.
Minimum magnitude displayed is 2.5.

Coastal Water Temperatures

Place Temperature
No Stations Reporting

Nearby Weather Stations